Skip Navigation Links
NOAA logo - Click to go to the NOAA homepage
NOAA's National Weather Service
Alaska Aviation Weather Unit
  NWS logo - Click to go to the NWS homepage
Left Navbar Graphic     22 AKDT = 06 GMT

   
NOAA is celebrating 200 years of science, service, and stewardship. Visit the NOAA 200th celebration Web site to learn more.
USA.gov is the U.S. Government's official Web portal to all Federal, state and local government Web resources and services.
Facebook
NWS on Facebook

Important Change Regarding the AAWU Web Presence

 

Over the last several months, the AAWU has been working to navigate its webpages to a nationally supported server. Security, as well as other needs, have necessitated the change.  We have been given an extension for the site changeover while we diligently work at addressing feedback received. As of July 14, 2017, aawu.arh.noaa.gov will be discontinued. The new AAWU web address is weather.gov/aawu. It is now live and will run in-parallel with the old site until it is discontinued on July 14, 2017. Please continue to send any feedback or questions regarding the new webpages to nws.ar.aawu.webauthors@noaa.gov.  Thank you for your patience during this time of transition.
AAWU Home :: Display TAF Add Bookmark
TAF PAJN 260545Z 2606/2706 10004KT P6SM SCT015 OVC045
     FM261200 12006KT P6SM -RA OVC035
     FM262000 24005KT 5SM -RA BR SCT025 OVC035
     FM270400 VRB05KT P6SM -RA OVC025=

METAR PAJN 260053Z 08004KT 10SM FEW026 BKN043 OVC055 16/12 A3000= METAR PAJN 260153Z VRB03KT 10SM FEW029 BKN044 OVC055 16/11 A2999= METAR PAJN 260253Z 20003KT 10SM FEW031 BKN048 OVC060 16/11 A2997= METAR PAJN 260353Z 11003KT 10SM FEW031 BKN048 OVC070 15/11 A2997= METAR PAJN 260453Z 00000KT 10SM BKN050 OVC080 14/12 A2996= METAR PAJN 260553Z 00000KT 10SM FEW047 SCT060 OVC085 14/11 A2995=
 Alaska TAF Map

NOAA's National Weather Service
Alaska Aviation Weather Unit
6930 Sand Lake Road
Anchorage, AK 99502-1845
Disclaimer
Credits
Glossary
Privacy Policy
About Us
Career Opportunities
Contact AAWU Internet Services Site last modified: April, 17th 2012